createdAt,value
2018-07-23T00:02:22.853Z,18.55
2018-07-23T00:04:56.288Z,18.45
2018-07-23T00:07:29.734Z,18.47
2018-07-23T00:10:03.292Z,18.42
2018-07-23T00:12:36.898Z,18.38
2018-07-23T00:15:10.350Z,18.29
2018-07-23T00:17:43.945Z,18.24
2018-07-23T00:20:17.531Z,18.21
2018-07-23T00:22:51.020Z,18.17
2018-07-23T00:25:24.658Z,18.11
2018-07-23T00:27:58.260Z,18.04
2018-07-23T00:30:31.833Z,17.98
2018-07-23T00:33:05.343Z,17.91
2018-07-23T00:35:38.933Z,17.79
2018-07-23T00:38:12.499Z,17.77
2018-07-23T00:40:46.019Z,17.71
2018-07-23T00:43:19.553Z,17.70
2018-07-23T00:45:53.137Z,17.65
2018-07-23T00:48:26.679Z,17.65
2018-07-23T00:51:00.267Z,17.52
2018-07-23T00:53:33.886Z,17.40
2018-07-23T00:56:07.501Z,17.37
2018-07-23T00:58:40.971Z,17.45
2018-07-23T01:01:14.752Z,17.44
2018-07-23T01:03:48.354Z,17.39
2018-07-23T01:06:21.963Z,17.32
2018-07-23T01:08:55.426Z,17.32
2018-07-23T01:11:28.803Z,17.35
2018-07-23T01:14:02.360Z,17.36
2018-07-23T01:16:36.057Z,17.37
2018-07-23T01:19:09.661Z,17.32
2018-07-23T01:21:43.221Z,17.28
2018-07-23T01:24:16.687Z,17.26
2018-07-23T01:26:50.228Z,17.24
2018-07-23T01:29:23.826Z,17.23
2018-07-23T01:31:57.394Z,17.19
2018-07-23T01:34:31.133Z,17.16
2018-07-23T01:37:04.983Z,17.14
2018-07-23T01:39:38.576Z,17.11
2018-07-23T01:42:12.305Z,17.11
2018-07-23T01:44:45.890Z,17.10
2018-07-23T01:47:19.442Z,17.08
2018-07-23T01:49:53.007Z,17.03
2018-07-23T01:52:26.669Z,17.00
2018-07-23T01:55:00.267Z,16.96
2018-07-23T01:57:33.856Z,16.92
2018-07-23T02:00:07.816Z,16.87
2018-07-23T02:02:41.446Z,16.85
2018-07-23T02:05:15.020Z,16.81
2018-07-23T02:07:48.672Z,16.77
2018-07-23T02:10:22.342Z,16.73
2018-07-23T02:12:55.878Z,16.69
2018-07-23T02:15:29.479Z,16.68
2018-07-23T02:18:03.077Z,16.70
2018-07-23T02:20:36.678Z,16.68
2018-07-23T02:23:10.295Z,16.72
2018-07-23T02:25:43.888Z,16.74
2018-07-23T02:28:17.483Z,16.74
2018-07-23T02:30:50.910Z,16.75
2018-07-23T02:33:24.517Z,16.75
2018-07-23T02:35:58.135Z,16.74
2018-07-23T02:38:31.762Z,16.71
2018-07-23T02:41:05.426Z,16.70
2018-07-23T02:43:39.018Z,16.68
2018-07-23T02:46:12.447Z,16.65
2018-07-23T02:48:46.072Z,16.63
2018-07-23T02:51:19.682Z,16.62
2018-07-23T02:53:53.234Z,16.60
2018-07-23T02:56:26.841Z,16.59
2018-07-23T02:59:00.415Z,16.57
2018-07-23T03:01:34.048Z,16.55
2018-07-23T03:04:07.612Z,16.51
2018-07-23T03:06:41.306Z,16.49
2018-07-23T03:09:14.908Z,16.46
2018-07-23T03:11:48.616Z,16.45
2018-07-23T03:14:22.213Z,16.45
2018-07-23T03:16:55.951Z,16.41
2018-07-23T03:19:29.549Z,16.42
2018-07-23T03:22:03.192Z,16.41
2018-07-23T03:24:36.743Z,16.40
2018-07-23T03:27:10.286Z,16.36
2018-07-23T03:29:43.882Z,16.35
2018-07-23T03:32:17.685Z,16.32
2018-07-23T03:34:51.260Z,16.28
2018-07-23T03:37:24.745Z,16.26
2018-07-23T03:39:58.278Z,16.23
2018-07-23T03:42:31.771Z,16.25
2018-07-23T03:45:06.368Z,16.25
2018-07-23T03:47:39.985Z,16.23
2018-07-23T03:50:13.562Z,16.25
2018-07-23T03:52:47.176Z,16.21
2018-07-23T03:55:20.771Z,16.22
2018-07-23T03:57:54.487Z,16.19
2018-07-23T04:00:28.079Z,16.20
2018-07-23T04:03:01.649Z,16.20
2018-07-23T04:05:35.242Z,16.17
2018-07-23T04:08:08.843Z,16.10
2018-07-23T04:10:42.443Z,16.08
2018-07-23T04:13:16.023Z,16.04
2018-07-23T04:15:49.654Z,16.02
2018-07-23T04:18:23.176Z,16.05
2018-07-23T04:20:56.666Z,16.08
2018-07-23T04:23:30.256Z,16.14
2018-07-23T04:26:03.875Z,16.22
2018-07-23T04:28:37.390Z,16.30
2018-07-23T04:31:10.914Z,16.39
2018-07-23T04:33:44.560Z,16.52
2018-07-23T04:36:18.192Z,16.65
2018-07-23T04:38:51.734Z,16.85
2018-07-23T04:41:25.299Z,17.03
2018-07-23T04:43:58.850Z,17.22
2018-07-23T04:46:32.504Z,17.39
2018-07-23T04:49:06.074Z,17.53
2018-07-23T04:51:39.728Z,17.67
2018-07-23T04:54:13.337Z,17.79
2018-07-23T04:56:46.937Z,17.92
2018-07-23T04:59:20.482Z,18.01
2018-07-23T05:01:54.155Z,18.11
2018-07-23T05:04:27.757Z,18.23
2018-07-23T05:07:01.258Z,18.35
2018-07-23T05:09:34.815Z,18.50
2018-07-23T05:12:08.325Z,18.65
2018-07-23T05:14:41.903Z,18.77
2018-07-23T05:17:15.531Z,18.90
2018-07-23T05:19:49.122Z,19.04
2018-07-23T05:22:22.682Z,19.22
2018-07-23T05:24:56.218Z,19.43
2018-07-23T05:27:29.938Z,19.64
2018-07-23T05:30:03.515Z,19.86
2018-07-23T05:32:37.147Z,20.02
2018-07-23T05:35:10.680Z,20.21
2018-07-23T05:37:44.276Z,20.42
2018-07-23T05:40:17.785Z,20.59
2018-07-23T05:42:51.263Z,20.66
2018-07-23T05:45:24.815Z,20.72
2018-07-23T05:47:59.208Z,20.79
2018-07-23T05:50:32.812Z,20.90
2018-07-23T05:53:06.419Z,20.97
2018-07-23T05:55:39.917Z,21.04
2018-07-23T05:58:13.410Z,21.09
2018-07-23T06:00:46.983Z,21.18
2018-07-23T06:03:20.502Z,21.34
2018-07-23T06:05:54.099Z,21.57
2018-07-23T06:08:27.714Z,21.83
2018-07-23T06:11:01.326Z,22.09
2018-07-23T06:13:35.010Z,22.30
2018-07-23T06:16:08.599Z,22.46
2018-07-23T06:18:42.287Z,22.60
2018-07-23T06:21:15.961Z,22.71
2018-07-23T06:23:49.756Z,22.73
2018-07-23T06:26:23.266Z,22.92
2018-07-23T06:28:56.877Z,23.16
2018-07-23T06:31:30.568Z,23.50
2018-07-23T06:34:04.000Z,23.74
2018-07-23T06:36:37.580Z,23.87
2018-07-23T06:39:12.130Z,23.96
2018-07-23T06:41:45.664Z,23.97
2018-07-23T06:44:19.797Z,24.07
2018-07-23T06:46:53.367Z,24.13
2018-07-23T06:49:26.926Z,24.12
2018-07-23T06:52:00.555Z,24.03
2018-07-23T06:54:34.205Z,24.08
2018-07-23T06:57:07.643Z,24.17
2018-07-23T06:59:41.237Z,24.23
2018-07-23T07:02:14.848Z,24.32
2018-07-23T07:04:48.443Z,24.27
2018-07-23T07:07:22.013Z,24.34
2018-07-23T07:09:55.539Z,24.51
2018-07-23T07:12:29.021Z,24.58
2018-07-23T07:15:02.690Z,24.61
2018-07-23T07:17:36.243Z,24.75
2018-07-23T07:20:09.907Z,24.93
2018-07-23T07:22:43.553Z,25.00
2018-07-23T07:25:17.046Z,25.12
2018-07-23T07:27:50.578Z,25.21
2018-07-23T07:30:24.028Z,25.09
2018-07-23T07:32:57.583Z,25.06
2018-07-23T07:35:31.320Z,25.33
2018-07-23T07:38:05.170Z,25.94
2018-07-23T07:40:38.794Z,26.26
2018-07-23T07:43:12.326Z,26.40
2018-07-23T07:45:45.772Z,26.28
2018-07-23T07:48:19.404Z,26.16
2018-07-23T07:50:52.976Z,26.13
2018-07-23T07:53:26.712Z,26.17
2018-07-23T07:56:00.141Z,25.97
2018-07-23T07:58:33.733Z,26.05
2018-07-23T08:01:07.311Z,26.08
2018-07-23T08:03:40.755Z,26.15
2018-07-23T08:06:14.452Z,26.34
2018-07-23T08:08:48.030Z,26.60
2018-07-23T08:11:21.655Z,26.76
2018-07-23T08:13:55.088Z,26.84
2018-07-23T08:16:28.689Z,26.79
2018-07-23T08:19:02.160Z,26.85
2018-07-23T08:21:36.262Z,26.98
2018-07-23T08:24:09.800Z,27.05
2018-07-23T08:26:43.288Z,26.93
2018-07-23T08:29:16.819Z,26.65
2018-07-23T08:31:50.392Z,26.88
2018-07-23T08:34:23.931Z,27.28
2018-07-23T08:36:57.490Z,27.46
2018-07-23T08:39:31.046Z,27.32
2018-07-23T08:42:04.652Z,27.28
2018-07-23T08:44:38.257Z,27.28
2018-07-23T08:47:11.799Z,27.23
2018-07-23T08:49:45.465Z,27.09
2018-07-23T08:52:19.032Z,27.31
2018-07-23T08:54:52.624Z,27.49
2018-07-23T08:57:26.217Z,27.52
2018-07-23T08:59:59.870Z,27.64
2018-07-23T09:02:33.299Z,27.73
2018-07-23T09:05:07.057Z,27.67
2018-07-23T09:07:40.602Z,27.91
2018-07-23T09:10:14.029Z,28.04
2018-07-23T09:12:47.393Z,28.19
2018-07-23T09:15:20.768Z,28.15
2018-07-23T09:17:54.236Z,28.27
2018-07-23T09:20:27.600Z,28.25
2018-07-23T09:23:00.979Z,28.24
2018-07-23T09:25:39.667Z,28.33
2018-07-23T09:28:13.012Z,28.39
2018-07-23T09:30:51.600Z,28.35
2018-07-23T09:33:25.547Z,28.34
2018-07-23T09:35:58.976Z,28.21
2018-07-23T09:38:32.328Z,28.22
2018-07-23T09:41:05.772Z,27.93
2018-07-23T09:43:39.134Z,27.70
2018-07-23T09:46:12.521Z,27.77
2018-07-23T09:48:45.871Z,27.96
2018-07-23T09:51:19.264Z,28.14
2018-07-23T09:53:52.703Z,28.28
2018-07-23T09:56:26.064Z,28.36
2018-07-23T09:58:59.448Z,28.50
2018-07-23T10:01:32.861Z,28.55
2018-07-23T10:04:06.728Z,28.59
2018-07-23T10:06:40.092Z,28.65
2018-07-23T10:09:13.440Z,28.70
2018-07-23T10:11:46.809Z,28.75
2018-07-23T10:14:20.172Z,28.81
2018-07-23T10:16:53.653Z,28.96
2018-07-23T10:19:27.037Z,29.13
2018-07-23T10:22:00.459Z,29.25
2018-07-23T10:24:33.889Z,29.31
2018-07-23T10:27:08.072Z,29.40
2018-07-23T10:29:41.480Z,29.39
2018-07-23T10:32:14.858Z,29.55
2018-07-23T10:34:48.247Z,29.64
2018-07-23T10:37:21.704Z,29.41
2018-07-23T10:39:55.113Z,29.58
2018-07-23T10:42:28.506Z,29.72
2018-07-23T10:45:01.931Z,29.79
2018-07-23T10:47:35.275Z,29.86
2018-07-23T10:50:08.768Z,29.86
2018-07-23T10:52:42.232Z,29.88
2018-07-23T10:55:15.671Z,29.84
2018-07-23T10:57:49.053Z,29.94
2018-07-23T11:00:22.460Z,29.95
2018-07-23T11:02:55.850Z,29.89
2018-07-23T11:05:29.228Z,29.87
2018-07-23T11:08:02.630Z,29.80
2018-07-23T11:10:36.100Z,29.79
2018-07-23T11:13:09.463Z,29.84
2018-07-23T11:15:42.855Z,29.92
2018-07-23T11:18:16.255Z,30.21
2018-07-23T11:20:49.627Z,30.33
2018-07-23T11:23:22.997Z,30.22
2018-07-23T11:25:56.412Z,30.08
2018-07-23T11:28:29.804Z,30.05
2018-07-23T11:31:03.206Z,30.11
2018-07-23T11:33:36.568Z,30.21
2018-07-23T11:36:09.943Z,30.53
2018-07-23T11:38:43.338Z,30.82
2018-07-23T11:41:16.720Z,30.96
2018-07-23T11:43:50.091Z,31.35
2018-07-23T11:46:24.984Z,31.56
2018-07-23T11:48:56.848Z,31.44
2018-07-23T11:51:30.239Z,31.15
2018-07-23T11:54:04.309Z,30.88
2018-07-23T11:56:37.728Z,30.76
2018-07-23T11:59:11.059Z,30.72
2018-07-23T12:01:44.525Z,30.77
2018-07-23T12:04:17.931Z,30.79
2018-07-23T12:06:51.340Z,30.85
2018-07-23T12:09:24.671Z,30.94
2018-07-23T12:11:58.138Z,31.09
2018-07-23T12:14:31.498Z,31.11
2018-07-23T12:17:04.953Z,31.08
2018-07-23T12:19:38.334Z,31.11
2018-07-23T12:22:11.723Z,31.14
2018-07-23T12:24:45.110Z,31.14
2018-07-23T12:27:18.495Z,31.07
2018-07-23T12:29:51.854Z,31.13
2018-07-23T12:32:25.270Z,31.11
2018-07-23T12:34:58.625Z,31.14
2018-07-23T12:37:32.004Z,31.19
2018-07-23T12:40:05.911Z,30.98
2018-07-23T12:42:39.248Z,30.86
2018-07-23T12:45:12.609Z,30.73
2018-07-23T12:47:46.058Z,30.67
2018-07-23T12:50:19.440Z,30.16
2018-07-23T12:52:52.823Z,30.08
2018-07-23T12:55:26.184Z,30.41
2018-07-23T12:57:59.611Z,30.44
2018-07-23T13:00:33.026Z,30.67
2018-07-23T13:03:06.413Z,30.95
2018-07-23T13:05:39.757Z,31.13
2018-07-23T13:08:13.179Z,31.18
2018-07-23T13:10:46.571Z,31.10
2018-07-23T13:13:19.935Z,31.18
2018-07-23T13:15:53.281Z,31.18
2018-07-23T13:18:26.716Z,31.28
2018-07-23T13:21:00.094Z,31.31
2018-07-23T13:23:33.500Z,31.31
2018-07-23T13:26:07.128Z,31.22
2018-07-23T13:28:40.565Z,31.30
2018-07-23T13:31:13.933Z,31.45
2018-07-23T13:33:47.315Z,31.51
2018-07-23T13:36:20.701Z,31.57
2018-07-23T13:38:54.234Z,31.58
2018-07-23T13:41:27.588Z,31.53
2018-07-23T13:44:01.015Z,31.05
2018-07-23T13:46:34.375Z,30.97
2018-07-23T13:49:07.761Z,31.09
2018-07-23T13:51:41.142Z,31.44
2018-07-23T13:54:14.530Z,31.48
2018-07-23T13:56:47.867Z,31.31
2018-07-23T13:59:21.228Z,31.27
2018-07-23T14:01:54.578Z,31.32
2018-07-23T14:04:27.944Z,31.46
2018-07-23T14:07:01.336Z,31.54
2018-07-23T14:09:34.721Z,31.60
2018-07-23T14:12:08.118Z,31.56
2018-07-23T14:14:41.491Z,31.51
2018-07-23T14:17:14.841Z,31.36
2018-07-23T14:19:48.252Z,31.17
2018-07-23T14:22:21.797Z,30.95
2018-07-23T14:24:55.216Z,30.86
2018-07-23T14:27:28.646Z,30.94
2018-07-23T14:30:02.141Z,30.89
2018-07-23T14:32:35.538Z,30.96
2018-07-23T14:35:08.917Z,31.05
2018-07-23T14:37:42.306Z,31.10
2018-07-23T14:40:15.696Z,31.12
2018-07-23T14:42:49.120Z,31.08
2018-07-23T14:45:22.485Z,31.18
2018-07-23T14:47:55.883Z,31.25
2018-07-23T14:50:29.255Z,31.30
2018-07-23T14:53:02.675Z,31.29
2018-07-23T14:55:36.092Z,31.19
2018-07-23T14:58:09.497Z,31.09
2018-07-23T15:00:42.890Z,31.01
2018-07-23T15:03:16.272Z,30.89
2018-07-23T15:05:49.656Z,30.81
2018-07-23T15:08:23.038Z,30.76
2018-07-23T15:10:56.417Z,30.60
2018-07-23T15:13:29.819Z,30.49
2018-07-23T15:16:03.214Z,30.35
2018-07-23T15:18:36.611Z,30.34
2018-07-23T15:21:09.976Z,30.28
2018-07-23T15:23:43.356Z,30.30
2018-07-23T15:26:16.715Z,30.33
2018-07-23T15:28:50.115Z,30.28
2018-07-23T15:31:23.514Z,30.34
2018-07-23T15:33:56.888Z,30.43
2018-07-23T15:36:30.259Z,30.47
2018-07-23T15:39:04.576Z,30.48
2018-07-23T15:41:38.101Z,30.50
2018-07-23T15:44:11.839Z,30.55
2018-07-23T15:46:45.089Z,30.54
2018-07-23T15:49:18.671Z,30.54
2018-07-23T15:51:52.032Z,30.47
2018-07-23T15:54:25.456Z,30.52
2018-07-23T15:56:58.799Z,30.63
2018-07-23T15:59:32.164Z,30.72
2018-07-23T16:02:05.547Z,30.74
2018-07-23T16:04:39.047Z,30.73
2018-07-23T16:07:12.404Z,30.71
2018-07-23T16:09:45.864Z,30.73
2018-07-23T16:12:19.223Z,30.70
2018-07-23T16:14:52.735Z,30.63
2018-07-23T16:17:26.205Z,30.63
2018-07-23T16:20:00.003Z,30.66
2018-07-23T16:22:33.427Z,30.67
2018-07-23T16:25:07.580Z,30.67
2018-07-23T16:27:41.090Z,30.53
2018-07-23T16:30:15.185Z,30.47
2018-07-23T16:32:48.592Z,30.48
2018-07-23T16:35:22.050Z,30.49
2018-07-23T16:37:55.499Z,30.56
2018-07-23T16:40:29.504Z,30.58
2018-07-23T16:43:03.111Z,30.53
2018-07-23T16:45:36.516Z,30.56
2018-07-23T16:48:09.869Z,30.49
2018-07-23T16:50:43.244Z,30.45
2018-07-23T16:53:16.676Z,30.43
2018-07-23T16:55:50.083Z,30.48
2018-07-23T16:58:23.659Z,30.51
2018-07-23T17:00:57.038Z,30.57
2018-07-23T17:03:30.478Z,30.69
2018-07-23T17:06:04.055Z,30.74
2018-07-23T17:08:37.418Z,30.70
2018-07-23T17:11:10.782Z,30.68
2018-07-23T17:13:44.255Z,30.63
2018-07-23T17:16:17.678Z,30.59
2018-07-23T17:18:51.045Z,30.57
2018-07-23T17:21:24.481Z,30.54
2018-07-23T17:23:57.816Z,30.49
2018-07-23T17:26:31.395Z,30.47
2018-07-23T17:29:04.746Z,30.45
2018-07-23T17:31:38.142Z,30.44
2018-07-23T17:34:11.534Z,30.50
2018-07-23T17:36:44.917Z,30.47
2018-07-23T17:39:18.279Z,30.36
2018-07-23T17:41:51.653Z,30.50
2018-07-23T17:44:25.003Z,30.48
2018-07-23T17:46:58.387Z,30.41
2018-07-23T17:49:31.747Z,30.31
2018-07-23T17:52:05.178Z,30.25
2018-07-23T17:54:39.125Z,30.15
2018-07-23T17:57:12.528Z,30.08
2018-07-23T17:59:45.889Z,30.02
2018-07-23T18:02:20.215Z,29.95
2018-07-23T18:04:53.974Z,29.87
2018-07-23T18:07:28.231Z,29.77
2018-07-23T18:10:02.433Z,29.68
2018-07-23T18:12:36.555Z,29.62
2018-07-23T18:15:12.137Z,29.55
2018-07-23T18:17:45.659Z,29.43
2018-07-23T18:20:19.112Z,29.35
2018-07-23T18:22:52.896Z,29.29
2018-07-23T18:25:26.642Z,29.23
2018-07-23T18:28:00.446Z,29.15
2018-07-23T18:30:33.841Z,29.09
2018-07-23T18:33:07.263Z,28.98
2018-07-23T18:35:40.695Z,28.89
2018-07-23T18:38:14.517Z,28.80
2018-07-23T18:40:48.268Z,28.66
2018-07-23T18:43:22.187Z,28.53
2018-07-23T18:45:56.076Z,28.38
2018-07-23T18:49:53.779Z,28.26
2018-07-23T18:52:28.323Z,28.08
2018-07-23T18:55:02.840Z,27.95
2018-07-23T18:57:36.402Z,27.83
2018-07-23T19:00:10.212Z,27.72
2018-07-23T19:02:43.586Z,27.59
2018-07-23T19:05:16.979Z,27.44
2018-07-23T19:07:50.351Z,27.33
2018-07-23T19:10:23.756Z,27.18
2018-07-23T19:12:57.112Z,27.07
2018-07-23T19:15:30.588Z,26.97
2018-07-23T19:18:03.995Z,26.83
2018-07-23T19:20:37.391Z,26.72
2018-07-23T19:23:10.763Z,26.65
2018-07-23T19:25:44.161Z,26.51
2018-07-23T19:28:17.531Z,26.43
2018-07-23T19:30:51.000Z,26.32
2018-07-23T19:33:24.385Z,26.18
2018-07-23T19:35:57.840Z,26.08
2018-07-23T19:38:31.247Z,26.00
2018-07-23T19:41:04.703Z,25.91
2018-07-23T19:43:38.838Z,25.82
2018-07-23T19:46:12.508Z,25.66
2018-07-23T19:48:45.955Z,25.58
2018-07-23T19:51:19.336Z,25.50
2018-07-23T19:53:52.700Z,25.42
2018-07-23T19:56:26.085Z,25.28
2018-07-23T19:58:59.463Z,25.17
2018-07-23T20:01:33.099Z,25.05
2018-07-23T20:04:06.676Z,24.97
2018-07-23T20:06:40.132Z,24.92
2018-07-23T20:09:13.653Z,24.82
2018-07-23T20:11:47.039Z,24.67
2018-07-23T20:14:20.498Z,24.58
2018-07-23T20:16:53.896Z,24.52
2018-07-23T20:19:27.450Z,24.45
2018-07-23T20:22:00.856Z,24.34
2018-07-23T20:24:35.297Z,24.30
2018-07-23T20:27:08.715Z,24.19
2018-07-23T20:29:42.153Z,24.11
2018-07-23T20:32:16.636Z,24.02
2018-07-23T20:34:50.058Z,23.93
2018-07-23T20:37:24.107Z,23.79
2018-07-23T20:39:57.528Z,23.70
2018-07-23T20:42:31.255Z,23.62
2018-07-23T20:45:05.115Z,23.56
2018-07-23T20:47:38.591Z,23.47
2018-07-23T20:50:12.018Z,23.35
2018-07-23T20:52:45.837Z,23.36
2018-07-23T20:55:19.251Z,23.27
2018-07-23T20:57:52.726Z,23.18
2018-07-23T21:00:26.160Z,23.09
2018-07-23T21:02:59.544Z,23.03
2018-07-23T21:05:33.334Z,22.96
2018-07-23T21:08:06.852Z,22.86
2018-07-23T21:10:40.226Z,22.73
2018-07-23T21:13:13.629Z,22.66
2018-07-23T21:15:47.053Z,22.68
2018-07-23T21:18:20.499Z,22.62
2018-07-23T21:20:53.927Z,22.46
2018-07-23T21:23:27.368Z,22.40
2018-07-23T21:26:00.867Z,22.36
2018-07-23T21:28:34.288Z,22.39
2018-07-23T21:31:08.147Z,22.37
2018-07-23T21:33:41.555Z,22.34
2018-07-23T21:36:14.964Z,22.26
2018-07-23T21:38:48.365Z,22.18
2018-07-23T21:41:21.761Z,22.15
2018-07-23T21:43:55.199Z,22.11
2018-07-23T21:46:28.624Z,22.08
2018-07-23T21:49:02.104Z,22.04
2018-07-23T21:51:35.510Z,22.01
2018-07-23T21:54:09.000Z,21.97
2018-07-23T21:56:42.371Z,21.90
2018-07-23T21:59:15.850Z,21.85
2018-07-23T22:01:49.269Z,21.81
2018-07-23T22:04:22.666Z,21.78
2018-07-23T22:06:56.045Z,21.73
2018-07-23T22:09:29.496Z,21.66
2018-07-23T22:12:02.953Z,21.61
2018-07-23T22:14:36.360Z,21.59
2018-07-23T22:17:09.771Z,21.56
2018-07-23T22:19:43.196Z,21.47
2018-07-23T22:22:16.581Z,21.41
2018-07-23T22:24:50.021Z,21.34
2018-07-23T22:27:23.503Z,21.29
2018-07-23T22:29:56.885Z,21.24
2018-07-23T22:32:30.325Z,21.17
2018-07-23T22:35:03.741Z,21.13
2018-07-23T22:37:37.207Z,21.07
2018-07-23T22:40:10.563Z,20.97
2018-07-23T22:42:44.009Z,20.90
2018-07-23T22:45:17.402Z,20.88
2018-07-23T22:47:50.787Z,20.87
2018-07-23T22:50:24.205Z,20.81
2018-07-23T22:52:57.711Z,20.80
2018-07-23T22:55:31.085Z,20.74
2018-07-23T22:58:04.817Z,20.73
2018-07-23T23:00:38.219Z,20.66
2018-07-23T23:03:11.594Z,20.60
2018-07-23T23:05:44.984Z,20.60
2018-07-23T23:08:18.431Z,20.60
2018-07-23T23:10:51.839Z,20.59
2018-07-23T23:13:25.268Z,20.58
2018-07-23T23:15:58.736Z,20.53
2018-07-23T23:18:32.191Z,20.46
2018-07-23T23:21:05.589Z,20.41
2018-07-23T23:23:39.083Z,20.47
2018-07-23T23:26:12.455Z,20.45
2018-07-23T23:28:45.836Z,20.43
2018-07-23T23:31:19.214Z,20.37
2018-07-23T23:33:52.609Z,20.30
2018-07-23T23:36:26.007Z,20.25
2018-07-23T23:38:59.433Z,20.21
2018-07-23T23:41:32.825Z,20.14
2018-07-23T23:44:06.257Z,20.11
2018-07-23T23:46:39.697Z,20.09
2018-07-23T23:49:13.079Z,20.07
2018-07-23T23:51:46.459Z,20.02
2018-07-23T23:54:19.859Z,19.96
2018-07-23T23:56:53.252Z,19.91
2018-07-23T23:59:26.660Z,19.87
